Time;durP1;ratioP1;P1;durP2;ratioP2;P2;SDS_P1;SDS_P2;PMS_P1;PMS_P2;Temp;Humidity;BMP_temperature;BMP_pressure;BME280_temperature;BME280_humidity;BME280_pressure;Samples;Min_cycle;Max_cycle;Signal;HPM_P1;HPM_P2
2022/08/24 00:02:17;;;;;;;21.05;18.15;;;;;;;19.45;91.09;101621.69;5046535;28;20024;-77
2022/08/24 00:04:43;;;;;;;22.63;18.65;;;;;;;19.41;91.35;101610.47;5046724;28;20493;-77
2022/08/24 00:07:08;;;;;;;20.77;18.77;;;;;;;19.46;90.37;101610.03;5042819;28;20115;-76
2022/08/24 00:09:34;;;;;;;20.52;18.45;;;;;;;19.48;90.29;101612.53;5048434;28;20437;-76
2022/08/24 00:11:59;;;;;;;23.15;18.50;;;;;;;19.44;90.19;101614.66;5046977;28;20048;-79
2022/08/24 00:14:25;;;;;;;20.48;18.38;;;;;;;19.39;90.50;101623.13;5045755;28;20136;-78
2022/08/24 00:16:50;;;;;;;21.80;19.55;;;;;;;19.30;90.86;101623.22;5047345;28;20064;-78
2022/08/24 00:19:16;;;;;;;21.13;19.33;;;;;;;19.28;91.09;101626.03;5047496;28;20021;-76
2022/08/24 00:21:41;;;;;;;20.65;18.60;;;;;;;19.22;91.60;101628.47;5039525;28;20452;-76
2022/08/24 00:24:08;;;;;;;22.38;20.02;;;;;;;19.21;91.57;101626.75;5042523;28;20502;-76
2022/08/24 00:26:34;;;;;;;22.42;20.13;;;;;;;19.15;91.83;101622.88;5046787;28;20058;-76
2022/08/24 00:29:00;;;;;;;24.70;22.25;;;;;;;19.13;92.67;101629.34;5045830;28;20017;-76
2022/08/24 00:31:25;;;;;;;23.55;21.30;;;;;;;19.11;92.36;101629.50;5045338;28;20425;-76
2022/08/24 00:33:50;;;;;;;22.70;20.40;;;;;;;19.05;92.20;101630.09;5043548;28;20017;-76
2022/08/24 00:36:16;;;;;;;23.33;21.10;;;;;;;19.02;92.62;101636.56;5042728;28;20090;-75
2022/08/24 00:38:42;;;;;;;23.92;21.40;;;;;;;18.99;92.80;101636.03;5047242;28;20514;-75
2022/08/24 00:41:07;;;;;;;23.95;21.65;;;;;;;18.99;92.90;101636.03;5047594;28;20091;-76
2022/08/24 00:43:33;;;;;;;23.75;21.60;;;;;;;18.93;93.34;101629.47;5047019;28;20203;-76
2022/08/24 00:45:58;;;;;;;25.05;22.50;;;;;;;18.94;93.24;101632.97;5047515;28;20029;-76
2022/08/24 00:48:29;;;;;;;25.08;22.65;;;;;;;18.92;93.88;101637.63;5048026;28;20036;-76
2022/08/24 00:51:05;;;;;;;24.92;22.52;;;;;;;18.87;93.66;101637.22;5047054;28;20056;-78
2022/08/24 00:53:35;;;;;;;25.08;22.55;;;;;;;18.87;93.82;101629.22;5046513;28;20025;-76
2022/08/24 00:56:07;;;;;;;26.05;23.58;;;;;;;18.85;94.26;101639.22;5027444;28;20022;-80
2022/08/24 00:58:37;;;;;;;28.10;25.08;;;;;;;18.83;94.80;101631.34;5029029;28;20033;-78
2022/08/24 01:01:06;;;;;;;27.38;24.75;;;;;;;18.76;95.05;101627.56;5028900;28;20025;-78
2022/08/24 01:03:34;;;;;;;28.00;25.23;;;;;;;18.78;95.15;101642.44;5028303;28;20025;-78
2022/08/24 01:06:00;;;;;;;27.85;25.15;;;;;;;18.74;95.03;101633.06;5027507;28;20021;-77
2022/08/24 01:08:26;;;;;;;28.15;25.45;;;;;;;18.71;94.90;101632.50;5033918;28;20025;-78
2022/08/24 01:11:02;;;;;;;30.27;27.38;;;;;;;18.72;95.69;101634.19;5046979;28;20111;-77
2022/08/24 01:13:29;;;;;;;31.83;28.30;;;;;;;18.68;96.07;101627.47;5049098;28;20029;-78
2022/08/24 01:16:00;;;;;;;30.02;27.17;;;;;;;18.66;95.81;101630.28;5047860;28;20079;-78
2022/08/24 01:21:30;;;;;;;31.23;28.15;;;;;;;18.67;96.31;101626.63;5049229;28;20040;-76
2022/08/24 01:23:59;;;;;;;29.63;26.83;;;;;;;18.67;95.58;101631.13;5031261;28;20436;-75
2022/08/24 01:26:54;;;;;;;30.30;27.25;;;;;;;18.61;96.37;101632.53;5029282;28;20029;-78
2022/08/24 01:29:24;;;;;;;30.48;27.42;;;;;;;18.61;95.97;101634.34;5050968;28;20041;-78
2022/08/24 01:31:49;;;;;;;32.80;28.98;;;;;;;18.59;96.73;101633.66;5048713;28;20039;-77
2022/08/24 01:34:15;;;;;;;32.65;29.23;;;;;;;18.57;97.04;101631.16;5049495;28;20025;-78
2022/08/24 01:36:47;;;;;;;31.88;28.67;;;;;;;18.55;96.85;101627.78;5048550;28;20020;-77
2022/08/24 01:39:22;;;;;;;32.55;29.35;;;;;;;18.56;96.86;101629.47;5048431;28;20021;-78
2022/08/24 01:41:48;;;;;;;30.58;27.50;;;;;;;18.53;96.48;101621.75;5051593;28;20108;-78
2022/08/24 01:44:14;;;;;;;32.33;28.83;;;;;;;18.58;96.66;101616.00;5048864;28;20136;-78
2022/08/24 01:46:44;;;;;;;31.70;28.60;;;;;;;18.60;96.94;101616.69;5050410;28;20094;-79
2022/08/24 01:49:10;;;;;;;32.30;29.23;;;;;;;18.55;97.09;101621.63;5050697;28;20044;-78
2022/08/24 01:51:35;;;;;;;32.95;29.75;;;;;;;18.56;96.78;101618.81;5051041;28;20378;-79
2022/08/24 01:54:02;;;;;;;31.60;28.40;;;;;;;18.60;96.62;101620.19;5049900;28;20044;-79
2022/08/24 01:56:29;;;;;;;31.70;28.70;;;;;;;18.59;96.34;101621.16;5051056;28;20025;-79
2022/08/24 01:58:55;;;;;;;30.60;27.50;;;;;;;18.59;95.41;101618.50;5051910;28;20017;-79
2022/08/24 02:01:20;;;;;;;31.65;28.58;;;;;;;18.50;95.97;101616.72;5049992;28;20111;-78
2022/08/24 02:03:45;;;;;;;32.35;29.15;;;;;;;18.44;96.36;101612.81;5052124;28;20108;-78
2022/08/24 02:06:11;;;;;;;31.83;28.60;;;;;;;18.46;96.01;101610.00;5051502;28;20048;-78
2022/08/24 02:08:37;;;;;;;30.95;27.95;;;;;;;18.47;95.64;101611.69;5051683;28;20032;-78
2022/08/24 02:11:06;;;;;;;30.55;27.58;;;;;;;18.45;95.72;101614.50;5051643;28;20356;-77
2022/08/24 02:13:31;;;;;;;33.00;29.77;;;;;;;18.38;96.39;101612.53;5051022;28;20029;-77
2022/08/24 02:15:57;;;;;;;33.20;29.98;;;;;;;18.34;96.65;101620.00;5050539;28;20394;-77
2022/08/24 02:18:23;;;;;;;32.63;29.40;;;;;;;18.37;97.19;101618.84;5049095;28;20078;-75
2022/08/24 02:20:49;;;;;;;32.70;29.38;;;;;;;18.36;96.60;101622.50;5048795;28;20025;-76
2022/08/24 02:23:15;;;;;;;32.33;29.17;;;;;;;18.38;96.80;101618.72;5047735;28;20528;-77
2022/08/24 02:25:40;;;;;;;33.08;29.98;;;;;;;18.26;97.15;101621.69;5050840;28;20104;-78
2022/08/24 02:28:05;;;;;;;31.35;28.35;;;;;;;18.25;96.21;101628.84;5049746;28;20100;-76
2022/08/24 02:30:32;;;;;;;33.10;29.75;;;;;;;18.20;97.05;101632.94;5049327;28;20017;-76
2022/08/24 02:32:58;;;;;;;32.33;29.13;;;;;;;18.18;97.03;101641.06;5047802;28;20060;-76
2022/08/24 02:35:24;;;;;;;32.65;29.38;;;;;;;18.13;97.62;101644.16;5047257;28;20028;-75
2022/08/24 02:37:51;;;;;;;33.35;30.10;;;;;;;18.12;97.66;101641.66;5049305;28;20021;-76
2022/08/24 02:40:16;;;;;;;34.28;30.60;;;;;;;18.09;97.80;101639.28;5048362;28;20039;-77
2022/08/24 02:42:41;;;;;;;33.08;29.77;;;;;;;18.05;97.37;101641.38;5049660;28;20041;-76
2022/08/24 02:45:07;;;;;;;32.65;29.45;;;;;;;18.03;97.38;101643.34;5049757;28;20482;-77
2022/08/24 02:47:34;;;;;;;32.35;29.13;;;;;;;17.97;97.06;101640.38;5049964;28;20025;-77
2022/08/24 02:50:00;;;;;;;31.70;28.70;;;;;;;17.97;97.15;101640.38;5048605;28;20493;-77
2022/08/24 02:52:26;;;;;;;31.92;28.67;;;;;;;18.01;96.84;101645.31;5048411;28;20039;-77
2022/08/24 02:54:54;;;;;;;32.97;29.83;;;;;;;17.97;96.56;101641.22;5050508;28;20107;-76
2022/08/24 02:57:19;;;;;;;31.50;28.40;;;;;;;17.91;97.09;101644.47;5049229;28;20107;-77
2022/08/24 02:59:45;;;;;;;32.75;29.65;;;;;;;17.90;97.48;101641.94;5050014;28;20061;-77
2022/08/24 03:02:10;;;;;;;32.60;29.33;;;;;;;17.87;97.22;101640.41;5048990;28;20107;-77
2022/08/24 03:04:35;;;;;;;30.98;27.85;;;;;;;17.84;97.37;101646.00;5048750;28;20051;-77
2022/08/24 03:07:01;;;;;;;31.50;28.58;;;;;;;17.81;97.31;101644.47;5050268;28;20028;-78
2022/08/24 03:09:26;;;;;;;31.20;28.17;;;;;;;17.80;97.70;101633.97;5049472;28;20024;-78
2022/08/24 03:11:52;;;;;;;30.02;27.23;;;;;;;17.81;97.88;101638.31;5049457;28;20028;-78
2022/08/24 03:14:17;;;;;;;30.83;27.75;;;;;;;17.83;97.62;101636.34;5049166;28;20028;-78
2022/08/24 03:16:44;;;;;;;29.52;26.73;;;;;;;17.82;97.19;101634.66;5049244;28;20017;-78
2022/08/24 03:19:10;;;;;;;30.27;27.27;;;;;;;17.80;97.27;101631.31;5049585;28;20037;-78
2022/08/24 03:21:35;;;;;;;30.92;27.90;;;;;;;17.75;97.44;101641.53;5048419;28;20025;-78
2022/08/24 03:24:01;;;;;;;29.27;26.48;;;;;;;17.71;97.50;101633.00;5048348;28;20021;-78
2022/08/24 03:26:26;;;;;;;30.83;27.73;;;;;;;17.67;97.52;101630.75;5046851;28;20032;-78
2022/08/24 03:28:54;;;;;;;28.77;25.98;;;;;;;17.67;97.74;101641.41;5050349;28;20578;-76
2022/08/24 03:31:20;;;;;;;29.02;26.23;;;;;;;17.63;98.02;101634.66;5048078;28;20029;-77
2022/08/24 03:33:45;;;;;;;28.23;25.50;;;;;;;17.64;97.95;101625.69;5048095;28;20032;-77
2022/08/24 03:36:11;;;;;;;30.00;26.95;;;;;;;17.59;97.77;101630.56;5047906;28;20329;-77
2022/08/24 03:38:36;;;;;;;27.33;24.73;;;;;;;17.59;98.01;101627.91;5047331;28;20035;-77
2022/08/24 03:41:01;;;;;;;27.90;25.08;;;;;;;17.59;97.63;101627.91;5046879;28;20072;-77
2022/08/24 03:43:45;;;;;;;27.60;24.92;;;;;;;17.58;97.26;101627.06;5047857;28;20080;-77
2022/08/24 03:46:12;;;;;;;27.40;24.63;;;;;;;17.60;97.16;101629.59;5046362;28;20029;-77
2022/08/24 03:48:39;;;;;;;27.52;24.75;;;;;;;17.56;97.99;101634.34;5049034;28;20037;-79
2022/08/24 03:51:09;;;;;;;27.73;25.10;;;;;;;17.51;97.70;101632.09;5048502;28;20028;-77
2022/08/24 03:53:35;;;;;;;28.35;25.55;;;;;;;17.48;97.34;101637.72;5080589;28;20513;-79
2022/08/24 03:56:00;;;;;;;27.95;25.33;;;;;;;17.44;97.77;101632.81;5048409;28;20112;-77
2022/08/24 03:58:26;;;;;;;26.98;24.33;;;;;;;17.40;97.71;101634.91;5048814;28;20017;-76
2022/08/24 04:00:52;;;;;;;28.45;25.23;;;;;;;17.38;97.75;101636.88;5047405;28;20035;-79
2022/08/24 04:03:17;;;;;;;29.58;26.65;;;;;;;17.35;98.44;101631.81;5029356;28;20374;-78
2022/08/24 04:05:43;;;;;;;29.15;26.30;;;;;;;17.32;98.44;101637.41;5048358;28;20025;-78
2022/08/24 04:08:09;;;;;;;28.20;25.60;;;;;;;17.32;98.06;101641.91;5047427;28;20441;-78
2022/08/24 04:10:34;;;;;;;27.23;24.55;;;;;;;17.32;97.44;101637.41;5048524;28;20449;-78
2022/08/24 04:13:00;;;;;;;29.60;26.67;;;;;;;17.32;97.75;101639.25;5048368;28;20051;-77
2022/08/24 04:15:26;;;;;;;31.92;28.77;;;;;;;17.26;97.85;101642.47;5047000;28;20534;-75
2022/08/24 04:17:54;;;;;;;31.65;28.45;;;;;;;17.25;98.10;101641.63;5045199;28;20130;-76
2022/08/24 04:20:20;;;;;;;31.88;28.63;;;;;;;17.27;98.44;101638.81;5047236;28;20021;-75
2022/08/24 04:22:45;;;;;;;30.20;27.23;;;;;;;17.24;98.63;101637.28;5047245;28;20107;-76
2022/08/24 04:25:11;;;;;;;29.50;26.52;;;;;;;17.23;98.37;101639.09;5046627;28;20603;-78
2022/08/24 04:27:39;;;;;;;30.20;27.40;;;;;;;17.19;98.49;101652.78;5046777;28;20031;-76
2022/08/24 04:30:05;;;;;;;29.77;26.80;;;;;;;17.17;98.43;101644.09;5049014;28;20017;-78
2022/08/24 04:32:31;;;;;;;28.08;25.38;;;;;;;17.15;98.32;101644.22;5030234;28;20035;-77
2022/08/24 04:34:59;;;;;;;29.55;26.58;;;;;;;17.16;99.06;101653.03;5046514;28;20108;-78
2022/08/24 04:37:24;;;;;;;29.17;26.20;;;;;;;17.10;98.97;101643.81;5046228;28;20049;-78
2022/08/24 04:39:50;;;;;;;29.92;26.73;;;;;;;17.10;98.78;101653.59;5048421;28;20045;-78
2022/08/24 04:42:16;;;;;;;27.55;24.77;;;;;;;17.16;97.98;101653.03;5048155;28;20024;-77
2022/08/24 04:44:42;;;;;;;29.25;26.17;;;;;;;17.07;98.58;101653.88;5081590;28;20492;-77
2022/08/24 04:47:07;;;;;;;28.75;25.98;;;;;;;17.08;99.29;101653.72;5047629;28;20033;-77
2022/08/24 04:49:32;;;;;;;28.17;25.38;;;;;;;17.09;98.80;101641.28;5047434;28;20518;-77
2022/08/24 04:51:58;;;;;;;27.30;24.63;;;;;;;17.04;99.12;101651.47;5046221;28;20538;-78
2022/08/24 04:54:24;;;;;;;25.90;23.40;;;;;;;17.10;98.42;101649.13;5053356;28;20155;-78
2022/08/24 04:56:49;;;;;;;27.13;24.08;;;;;;;17.05;98.35;101656.66;5054031;28;20533;-78
2022/08/24 04:59:15;;;;;;;24.90;22.48;;;;;;;17.08;98.19;101655.56;5054291;28;20430;-76
2022/08/24 05:01:41;;;;;;;26.85;24.25;;;;;;;17.05;98.96;101651.34;5054768;28;20363;-77
2022/08/24 05:04:06;;;;;;;27.10;24.35;;;;;;;17.03;98.89;101661.28;5051945;28;20522;-77
2022/08/24 05:06:32;;;;;;;26.02;23.35;;;;;;;17.03;98.94;101663.09;5054824;28;20021;-78
2022/08/24 05:08:59;;;;;;;26.65;24.02;;;;;;;17.06;98.62;101662.81;5052156;28;20490;-76
2022/08/24 05:11:25;;;;;;;26.70;23.90;;;;;;;17.07;99.32;101659.19;5050513;28;20475;-77
2022/08/24 05:13:53;;;;;;;25.42;22.92;;;;;;;17.11;98.99;101664.09;5054940;28;20029;-76
2022/08/24 05:16:19;;;;;;;26.73;24.05;;;;;;;17.14;98.92;101657.66;5053240;28;20017;-75
2022/08/24 05:18:45;;;;;;;25.52;23.08;;;;;;;17.18;98.99;101667.03;5054027;28;20033;-76
2022/08/24 05:21:13;;;;;;;24.65;22.30;;;;;;;17.17;99.15;101666.22;5054135;28;20564;-75
2022/08/24 05:23:39;;;;;;;25.98;23.33;;;;;;;17.19;99.01;101658.09;5053805;28;20016;-75
2022/08/24 05:26:18;;;;;;;27.40;24.70;;;;;;;17.19;99.17;101666.06;5053741;28;20024;-78
2022/08/24 05:28:44;;;;;;;26.48;23.77;;;;;;;17.22;99.68;101668.50;5054137;28;20556;-78
2022/08/24 05:31:13;;;;;;;25.85;23.35;;;;;;;17.33;100.00;101671.03;5054657;28;20095;-77
2022/08/24 05:33:38;;;;;;;26.10;23.45;;;;;;;17.54;99.91;101673.56;5055897;28;20036;-76
2022/08/24 05:36:05;;;;;;;26.27;23.75;;;;;;;17.73;99.58;101673.63;5055202;28;20433;-76
2022/08/24 05:38:31;;;;;;;24.80;22.30;;;;;;;17.96;98.23;101674.16;5055269;28;20028;-77
2022/08/24 05:40:57;;;;;;;24.90;22.33;;;;;;;17.90;97.62;101684.53;5054023;28;20570;-77
2022/08/24 05:43:23;;;;;;;24.38;21.88;;;;;;;17.94;97.62;101676.13;5052606;28;20127;-77
2022/08/24 05:45:48;;;;;;;24.40;21.90;;;;;;;17.94;98.00;101678.78;5055166;28;20029;-77
2022/08/24 05:48:13;;;;;;;23.77;21.33;;;;;;;17.97;97.85;101675.84;5055117;28;20055;-77
2022/08/24 05:50:39;;;;;;;24.83;22.25;;;;;;;17.95;98.02;101683.13;5055559;28;20032;-77
2022/08/24 05:53:05;;;;;;;27.17;24.27;;;;;;;17.93;98.73;101679.78;5053560;28;20144;-77
2022/08/24 05:55:30;;;;;;;29.90;24.05;;;;;;;17.93;98.66;101673.59;5054455;28;20128;-77
2022/08/24 05:57:59;;;;;;;27.45;24.55;;;;;;;17.95;99.77;101677.81;5052537;28;20025;-77
2022/08/24 06:00:25;;;;;;;27.80;25.10;;;;;;;17.99;99.91;101668.56;5052521;28;20475;-77
2022/08/24 06:02:55;;;;;;;29.17;25.70;;;;;;;18.02;100.00;101670.97;5053106;28;20094;-77
2022/08/24 06:05:20;;;;;;;33.55;28.50;;;;;;;18.05;100.00;101676.00;5032745;28;20021;-77
2022/08/24 06:07:45;;;;;;;32.03;28.55;;;;;;;18.09;100.00;101672.06;5049308;28;20471;-76
2022/08/24 06:10:11;;;;;;;37.55;32.97;;;;;;;18.14;100.00;101677.81;5050568;28;20283;-76
2022/08/24 06:12:37;;;;;;;40.63;35.13;;;;;;;18.24;100.00;101682.28;5051209;28;20020;-78
2022/08/24 06:15:03;;;;;;;42.60;36.80;;;;;;;18.30;100.00;101682.53;5049735;28;20123;-78
2022/08/24 06:17:28;;;;;;;39.53;35.35;;;;;;;18.37;100.00;101682.81;5048095;28;20386;-77
2022/08/24 06:19:54;;;;;;;41.72;37.38;;;;;;;18.45;100.00;101696.28;5050047;28;20479;-77
2022/08/24 06:22:19;;;;;;;42.80;38.28;;;;;;;18.51;100.00;101692.19;5039202;28;20028;-77
2022/08/24 06:27:28;;;;;;;44.70;40.30;;;;;;;18.73;100.00;101694.53;5029710;28;20403;-77
2022/08/24 06:30:00;;;;;;;44.67;39.97;;;;;;;18.83;100.00;101694.50;5029224;28;20021;-76
2022/08/24 06:32:25;;;;;;;48.08;43.08;;;;;;;19.00;100.00;101697.22;5031549;28;20029;-77
2022/08/24 06:34:54;;;;;;;46.80;41.22;;;;;;;19.07;100.00;101697.47;5042318;28;20109;-77
2022/08/24 06:37:25;;;;;;;46.25;41.58;;;;;;;19.20;100.00;101697.13;5051377;28;20020;-77
2022/08/24 06:39:51;;;;;;;45.75;41.03;;;;;;;19.34;100.00;101700.16;5051879;28;20493;-78
2022/08/24 06:42:16;;;;;;;48.95;43.78;;;;;;;19.49;100.00;101702.31;5032610;28;20143;-77
2022/08/24 06:44:41;;;;;;;50.58;45.25;;;;;;;19.57;100.00;101700.59;5051232;28;20053;-77
2022/08/24 06:47:07;;;;;;;51.40;43.65;;;;;;;19.67;100.00;101705.88;5051096;28;20037;-77
2022/08/24 06:49:32;;;;;;;48.10;43.00;;;;;;;19.87;100.00;101710.06;5049419;28;20025;-77
2022/08/24 06:51:58;;;;;;;50.00;44.65;;;;;;;19.93;100.00;101706.78;5050834;28;20024;-77
2022/08/24 06:54:23;;;;;;;49.30;43.95;;;;;;;20.09;98.90;101702.59;5050647;28;20025;-77
2022/08/24 06:56:48;;;;;;;48.72;43.55;;;;;;;20.17;98.70;101708.84;5050076;28;20037;-77
2022/08/24 06:59:14;;;;;;;46.95;41.95;;;;;;;20.27;99.09;101708.72;5048932;28;20390;-77
2022/08/24 07:01:39;;;;;;;42.67;38.17;;;;;;;20.46;97.38;101707.75;5050567;28;20029;-77
2022/08/24 07:04:04;;;;;;;34.83;31.33;;;;;;;20.65;93.88;101707.53;5048901;28;20097;-77
2022/08/24 07:06:29;;;;;;;35.60;30.23;;;;;;;20.88;92.83;101711.34;5050192;28;20021;-76
2022/08/24 07:08:55;;;;;;;35.65;29.85;;;;;;;21.12;91.67;101712.44;5048290;28;20494;-76
2022/08/24 07:11:22;;;;;;;31.60;28.08;;;;;;;21.33;89.41;101718.25;5049152;28;20021;-76
2022/08/24 07:13:48;;;;;;;35.47;27.17;;;;;;;21.57;88.11;101720.97;5050266;28;20029;-76
2022/08/24 07:16:15;;;;;;;37.38;25.75;;;;;;;21.89;87.26;101725.56;5048468;28;20033;-76
2022/08/24 07:18:40;;;;;;;33.75;23.25;;;;;;;22.10;84.83;101721.59;5049780;28;20063;-76
2022/08/24 07:21:06;;;;;;;31.88;23.38;;;;;;;22.44;82.44;101733.00;5049386;28;20418;-75
2022/08/24 07:23:31;;;;;;;29.73;22.83;;;;;;;22.56;81.60;101716.53;5049152;28;20481;-76
2022/08/24 07:26:08;;;;;;;32.17;22.48;;;;;;;22.79;80.29;101717.47;5048360;28;20494;-77
2022/08/24 07:28:36;;;;;;;26.73;19.52;;;;;;;23.12;77.28;101716.38;5050166;28;20033;-77
2022/08/24 07:31:02;;;;;;;27.48;18.70;;;;;;;23.36;75.08;101720.81;5041660;28;20494;-76
2022/08/24 07:33:27;;;;;;;21.38;17.77;;;;;;;23.56;72.99;101726.59;5030479;28;20033;-76
2022/08/24 07:35:53;;;;;;;20.98;16.63;;;;;;;23.78;73.08;101719.59;5047124;28;20025;-77
2022/08/24 07:38:18;;;;;;;24.88;18.55;;;;;;;24.00;70.93;101713.38;5047275;28;20033;-76
2022/08/24 07:40:46;;;;;;;24.20;16.80;;;;;;;24.25;71.49;101716.69;5049329;28;20017;-75
2022/08/24 07:43:12;;;;;;;20.63;17.15;;;;;;;24.54;69.35;101713.25;5048581;28;20052;-75
2022/08/24 07:45:40;;;;;;;25.83;15.52;;;;;;;24.81;69.13;101708.25;5047691;28;20032;-77
2022/08/24 07:48:06;;;;;;;23.77;16.95;;;;;;;25.21;66.50;101709.63;5048573;28;20029;-75
2022/08/24 07:50:31;;;;;;;20.98;14.95;;;;;;;25.44;66.96;101713.03;5050147;28;20021;-75
2022/08/24 07:52:57;;;;;;;15.23;12.77;;;;;;;25.78;63.67;101716.97;5048063;28;20044;-76
2022/08/24 07:55:23;;;;;;;15.30;12.18;;;;;;;25.92;62.53;101710.66;5050256;28;20104;-76
2022/08/24 07:57:48;;;;;;;15.38;11.13;;;;;;;26.12;61.44;101717.09;5050063;28;20096;-75
2022/08/24 08:00:16;;;;;;;17.25;11.40;;;;;;;26.31;62.69;101715.56;5048830;28;20040;-76
2022/08/24 08:02:45;;;;;;;20.00;11.25;;;;;;;26.40;60.35;101711.72;5050342;28;20145;-76
2022/08/24 08:05:10;;;;;;;13.80;10.18;;;;;;;26.80;58.77;101712.81;5049479;28;20017;-75
2022/08/24 08:07:36;;;;;;;16.23;8.95;;;;;;;26.95;57.14;101714.56;5047782;28;20155;-76
2022/08/24 08:10:02;;;;;;;15.15;8.18;;;;;;;26.98;56.98;101716.88;5047009;28;20029;-76
2022/08/24 08:12:27;;;;;;;14.23;9.38;;;;;;;26.85;57.30;101717.66;5048805;28;20037;-76
2022/08/24 08:14:52;;;;;;;10.23;8.07;;;;;;;26.95;56.92;101720.81;5047743;28;20032;-75
2022/08/24 08:17:18;;;;;;;14.98;7.20;;;;;;;27.05;56.20;101717.75;5048816;28;20352;-76
2022/08/24 08:19:43;;;;;;;11.70;7.80;;;;;;;26.96;58.41;101718.94;5048995;28;20055;-76
2022/08/24 08:24:52;;;;;;;18.05;7.97;;;;;;;27.46;54.66;101713.13;5048869;28;20525;-78
2022/08/24 08:27:19;;;;;;;15.63;7.43;;;;;;;27.52;53.07;101716.06;5047327;28;20029;-78
2022/08/24 08:29:45;;;;;;;9.82;6.70;;;;;;;27.61;54.37;101720.25;5048555;28;20036;-77
2022/08/24 08:32:13;;;;;;;11.32;6.53;;;;;;;27.95;52.93;101717.41;5048215;28;20399;-77
2022/08/24 08:34:39;;;;;;;8.95;6.55;;;;;;;28.22;52.55;101718.28;5048333;28;20027;-78
2022/08/24 08:37:04;;;;;;;7.95;5.68;;;;;;;28.47;52.47;101713.09;5047688;28;20025;-78
2022/08/24 08:39:30;;;;;;;14.05;5.85;;;;;;;28.36;53.15;101716.41;5048350;28;20162;-77
2022/08/24 08:42:02;;;;;;;10.77;6.60;;;;;;;28.37;52.74;101723.50;5047597;28;20025;-77
2022/08/24 08:45:02;;;;;;;8.63;5.93;;;;;;;28.71;53.40;101715.09;5048371;28;20053;-77
2022/08/24 08:47:49;;;;;;;11.10;5.75;;;;;;;28.59;52.29;101722.22;5048469;28;20066;-78
2022/08/24 08:50:20;;;;;;;9.45;4.60;;;;;;;28.48;51.17;101728.28;5047830;28;20032;-77
2022/08/24 08:53:11;;;;;;;6.90;4.90;;;;;;;28.57;52.19;101721.59;5048616;28;20071;-78
2022/08/24 08:56:14;;;;;;;8.98;4.90;;;;;;;28.69;51.99;101728.03;5047452;28;20021;-78
2022/08/24 08:59:01;;;;;;;9.13;4.65;;;;;;;28.48;48.99;101725.59;5048529;28;20025;-77
2022/08/24 09:01:29;;;;;;;5.80;3.53;;;;;;;28.50;49.94;101723.50;5047201;28;20078;-77
2022/08/24 09:04:20;;;;;;;11.27;4.65;;;;;;;28.44;51.59;101727.06;5047139;28;20556;-77
2022/08/24 09:06:56;;;;;;;9.32;3.70;;;;;;;28.59;51.42;101729.53;5048041;28;20029;-78
2022/08/24 09:09:59;;;;;;;7.05;3.28;;;;;;;28.82;51.12;101727.19;5045908;28;20029;-77
2022/08/24 09:12:40;;;;;;;4.85;2.53;;;;;;;29.11;49.81;101720.44;5048305;28;20472;-78
2022/08/24 09:15:24;;;;;;;6.90;3.20;;;;;;;29.00;47.85;101718.41;5046120;28;20032;-77
2022/08/24 09:18:13;;;;;;;5.47;3.20;;;;;;;29.06;48.94;101730.25;5042847;28;20055;-77
2022/08/24 09:21:17;;;;;;;8.50;3.47;;;;;;;29.10;50.79;101723.38;5032614;28;20495;-78
2022/08/24 09:23:55;;;;;;;7.00;3.20;;;;;;;28.92;48.11;101721.34;5010488;28;20052;-78
2022/08/24 09:26:28;;;;;;;4.93;2.78;;;;;;;29.13;48.08;101721.06;5041409;28;20020;-78
2022/08/24 09:29:14;;;;;;;4.53;2.63;;;;;;;29.32;49.42;101719.31;5047325;28;20036;-77
2022/08/24 09:32:07;;;;;;;4.28;2.28;;;;;;;29.38;47.62;101718.44;5043604;28;20030;-77
2022/08/24 09:34:46;;;;;;;6.75;1.98;;;;;;;29.44;46.88;101714.06;5039742;28;20053;-77
2022/08/24 09:37:45;;;;;;;4.75;2.00;;;;;;;29.62;47.55;101725.03;5048096;28;20021;-79
2022/08/24 09:40:41;;;;;;;4.32;2.30;;;;;;;29.84;45.01;101723.63;5084257;28;20718;-78
2022/08/24 09:43:15;;;;;;;4.55;2.00;;;;;;;30.10;45.77;101724.53;5046117;28;20055;-77
2022/08/24 09:45:54;;;;;;;3.35;1.77;;;;;;;30.32;44.41;101720.34;5050569;28;20438;-77
2022/08/24 09:48:45;;;;;;;5.03;2.35;;;;;;;30.33;46.00;101719.28;5051475;28;20021;-76
2022/08/24 09:51:38;;;;;;;3.22;1.90;;;;;;;30.32;43.90;101724.94;5049157;28;20079;-76
2022/08/24 09:54:27;;;;;;;4.22;1.90;;;;;;;30.36;44.74;101718.00;5051801;28;20099;-78
2022/08/24 09:57:00;;;;;;;5.28;1.92;;;;;;;30.39;43.40;101723.00;5052791;28;20471;-77
2022/08/24 09:59:48;;;;;;;3.03;1.70;;;;;;;30.40;42.60;101714.63;5050536;28;20021;-77
2022/08/24 10:02:41;;;;;;;2.80;1.55;;;;;;;30.73;43.99;101719.75;5053318;28;20086;-77
2022/08/24 10:05:12;;;;;;;;;;;;;;;30.88;45.63;101716.69;5049899;28;20076;-77
2022/08/24 10:08:07;;;;;;;6.15;1.65;;;;;;;30.75;44.76;101716.81;5050058;28;19912;-77
2022/08/24 10:10:38;;;;;;;4.50;1.58;;;;;;;30.69;42.30;101709.56;5051957;28;20056;-77
2022/08/24 10:13:17;;;;;;;4.25;2.03;;;;;;;30.39;42.58;101715.69;5051105;28;20498;-76
2022/08/24 10:16:10;;;;;;;3.45;1.80;;;;;;;30.38;43.79;101710.47;5050444;28;20017;-77
2022/08/24 10:19:14;;;;;;;3.38;1.98;;;;;;;30.29;43.74;101701.78;5022785;28;20021;-78
2022/08/24 10:22:07;;;;;;;5.60;2.10;;;;;;;30.08;44.27;101704.91;5051053;28;20033;-78
2022/08/24 10:24:54;;;;;;;2.50;1.80;;;;;;;29.70;44.46;101705.78;5030821;28;20022;-77
2022/08/24 10:27:39;;;;;;;2.70;1.50;;;;;;;29.46;43.85;101696.53;5062134;28;20120;-77
2022/08/24 10:30:37;;;;;;;3.63;1.65;;;;;;;29.33;46.24;101691.16;5029094;28;20033;-77
2022/08/24 10:33:05;;;;;;;5.30;1.60;;;;;;;29.20;45.43;101697.44;5029630;28;20029;-77
2022/08/24 10:36:08;;;;;;;2.38;1.33;;;;;;;29.12;46.38;101703.13;5047209;28;20032;-78
2022/08/24 10:41:32;;;;;;;6.38;1.70;;;;;;;29.07;44.03;101697.53;5049664;28;20043;-77
2022/08/24 10:44:16;;;;;;;5.95;1.73;;;;;;;29.25;45.10;101692.25;5048368;28;20044;-77
2022/08/24 10:46:52;;;;;;;2.65;1.70;;;;;;;29.44;44.40;101693.19;5050064;28;20210;-76
2022/08/24 10:49:33;;;;;;;3.95;1.90;;;;;;;29.52;44.69;101694.81;5049387;28;20033;-78
2022/08/24 10:52:07;;;;;;;5.85;1.80;;;;;;;29.84;44.78;101691.06;5049128;28;20029;-77
2022/08/24 10:54:35;;;;;;;5.85;1.88;;;;;;;29.99;42.97;101688.00;5048084;28;20120;-77
2022/08/24 10:57:19;;;;;;;6.82;1.73;;;;;;;30.18;43.69;101688.94;5048929;28;20021;-77
2022/08/24 10:59:53;;;;;;;4.50;1.88;;;;;;;30.31;42.73;101691.53;5051295;28;20387;-77
2022/08/24 11:02:32;;;;;;;3.08;1.83;;;;;;;30.39;42.42;101679.53;5049480;28;20031;-77
2022/08/24 11:05:00;;;;;;;4.15;1.60;;;;;;;30.12;42.08;101681.69;5050466;28;20032;-76
2022/08/24 11:07:26;;;;;;;4.13;1.70;;;;;;;29.99;42.37;101681.75;5051157;28;20025;-77
2022/08/24 11:09:55;;;;;;;4.75;1.95;;;;;;;30.02;42.26;101684.91;5050165;28;20029;-76
2022/08/24 11:12:25;;;;;;;3.50;1.60;;;;;;;29.87;43.36;101679.75;5050675;28;20017;-77
2022/08/24 11:14:51;;;;;;;4.05;1.90;;;;;;;29.91;42.09;101677.44;5049840;28;20482;-76
2022/08/24 11:17:20;;;;;;;1.92;1.60;;;;;;;30.06;42.93;101679.88;5045297;28;20030;-77
2022/08/24 11:19:46;;;;;;;2.95;1.63;;;;;;;30.25;43.41;101673.41;5040690;28;20032;-76
2022/08/24 11:22:35;;;;;;;3.33;1.90;;;;;;;30.23;43.09;101672.81;5048982;28;20533;-77
2022/08/24 11:25:09;;;;;;;2.55;1.65;;;;;;;30.43;43.11;101672.63;5048730;28;20029;-77
2022/08/24 11:27:39;;;;;;;5.57;2.03;;;;;;;30.34;41.97;101672.06;5048304;28;20032;-77
2022/08/24 11:30:07;;;;;;;2.40;1.80;;;;;;;30.37;41.86;101666.19;5047048;28;20033;-77
2022/08/24 11:32:38;;;;;;;5.55;1.90;;;;;;;30.41;42.31;101667.38;5048370;28;20669;-77
2022/08/24 11:35:26;;;;;;;3.58;1.75;;;;;;;30.56;42.48;101665.16;5047818;28;20053;-77
2022/08/24 11:37:55;;;;;;;3.83;1.80;;;;;;;30.33;41.79;101664.97;5044696;28;20390;-78